createdAt,value
2022-10-06T07:28:19.816Z,24.70
2022-10-06T07:31:06.785Z,24.23
2022-10-06T07:33:53.067Z,25.52
2022-10-06T07:36:39.524Z,21.85
2022-10-06T07:39:26.468Z,24.02
2022-10-06T07:42:15.132Z,21.85
2022-10-06T07:45:20.490Z,23.30
2022-10-06T07:48:14.573Z,22.30
2022-10-06T07:51:01.514Z,24.20
2022-10-06T07:53:50.876Z,20.92
2022-10-06T07:56:37.610Z,22.13
2022-10-06T07:59:23.403Z,21.02
2022-10-06T08:02:10.502Z,21.10
2022-10-06T08:04:56.995Z,19.40
2022-10-06T08:07:43.011Z,20.52
2022-10-06T08:10:29.509Z,21.52
2022-10-06T08:13:15.993Z,20.97
2022-10-06T08:16:11.385Z,19.07
2022-10-06T08:18:59.368Z,17.58
2022-10-06T08:21:46.541Z,18.95
2022-10-06T08:24:54.108Z,18.37
2022-10-06T08:27:44.218Z,19.95
2022-10-06T08:30:30.304Z,19.62
2022-10-06T08:33:20.011Z,21.90
2022-10-06T08:36:09.506Z,20.20
2022-10-06T08:38:56.309Z,21.10
2022-10-06T08:41:51.200Z,19.47
2022-10-06T08:44:44.424Z,19.65
2022-10-06T08:47:34.363Z,19.52
2022-10-06T08:50:22.222Z,18.98
2022-10-06T08:53:16.432Z,18.75
2022-10-06T08:56:25.540Z,16.90
2022-10-06T08:59:12.109Z,18.15
2022-10-06T09:01:58.369Z,17.60
2022-10-06T09:04:44.618Z,19.02
2022-10-06T09:07:40.065Z,16.75
2022-10-06T09:10:39.808Z,17.70
2022-10-06T09:13:33.156Z,16.52
2022-10-06T09:16:28.135Z,15.95
2022-10-06T09:19:24.752Z,15.10
2022-10-06T09:22:23.107Z,16.55
2022-10-06T09:25:22.090Z,17.45
2022-10-06T09:28:12.159Z,16.55
2022-10-06T09:31:02.455Z,15.10
2022-10-06T09:33:51.838Z,13.32
2022-10-06T09:37:03.186Z,15.73
2022-10-06T09:39:51.135Z,14.03
2022-10-06T09:42:37.615Z,13.68
2022-10-06T09:45:25.568Z,14.85
2022-10-06T09:48:18.176Z,11.85
2022-10-06T09:51:13.711Z,10.00
2022-10-06T09:54:11.190Z,11.07
2022-10-06T09:56:59.408Z,9.88
2022-10-06T09:59:48.479Z,8.02
2022-10-06T10:02:37.604Z,8.48
2022-10-06T10:05:25.098Z,9.10
2022-10-06T10:08:14.276Z,7.97
2022-10-06T10:11:32.424Z,8.07
2022-10-06T10:14:20.324Z,8.18
2022-10-06T10:17:09.661Z,7.55
2022-10-06T10:19:56.211Z,8.10
2022-10-06T10:22:42.797Z,8.18
2022-10-06T10:25:34.561Z,6.62
2022-10-06T10:28:27.544Z,7.43
2022-10-06T10:31:21.229Z,8.13
2022-10-06T10:34:38.217Z,7.80
2022-10-06T10:37:32.823Z,6.72
2022-10-06T10:40:31.512Z,7.87
2022-10-06T10:43:29.765Z,8.70
2022-10-06T10:46:36.459Z,7.55
2022-10-06T10:49:32.137Z,6.63
2022-10-06T10:52:27.401Z,7.37
2022-10-06T10:55:16.173Z,9.85
2022-10-06T10:58:11.962Z,7.93
2022-10-06T11:01:26.083Z,9.87
2022-10-06T11:04:13.587Z,7.57
2022-10-06T11:07:05.425Z,6.45
2022-10-06T11:10:12.407Z,5.37
2022-10-06T11:13:35.173Z,7.57
2022-10-06T11:16:27.207Z,7.62
2022-10-06T11:19:29.883Z,5.73
2022-10-06T11:22:23.002Z,6.72
2022-10-06T11:25:19.498Z,7.50
2022-10-06T11:28:14.897Z,7.30
2022-10-06T11:31:28.155Z,7.75
2022-10-06T11:34:14.816Z,5.60
2022-10-06T11:37:25.733Z,8.75
2022-10-06T11:40:31.697Z,7.00
2022-10-06T11:43:29.611Z,5.53
2022-10-06T11:46:22.802Z,5.68
2022-10-06T11:49:30.801Z,6.95
2022-10-06T11:52:17.215Z,5.12
2022-10-06T11:55:12.944Z,5.20
2022-10-06T11:58:23.502Z,7.87
2022-10-06T12:01:43.872Z,5.72
2022-10-06T12:04:30.500Z,6.53
2022-10-06T12:07:16.266Z,7.75
2022-10-06T12:10:28.050Z,11.70
2022-10-06T12:13:51.292Z,7.62
2022-10-06T12:17:08.478Z,7.25
2022-10-06T12:20:01.448Z,7.75
2022-10-06T12:22:51.609Z,7.90
2022-10-06T12:25:48.234Z,8.40
2022-10-06T12:28:47.422Z,9.52
2022-10-06T12:31:47.691Z,5.90
2022-10-06T12:55:24.420Z,6.75
2022-10-06T12:58:18.823Z,7.60
2022-10-06T13:01:08.825Z,6.68
2022-10-06T13:03:55.508Z,8.97
2022-10-06T13:06:48.791Z,6.05
2022-10-06T13:09:36.185Z,8.07
2022-10-06T13:12:28.557Z,5.28
2022-10-06T13:15:16.137Z,9.00
2022-10-06T13:18:08.155Z,6.87
2022-10-06T13:23:45.962Z,6.05
2022-10-06T13:26:34.679Z,6.40
2022-10-06T13:29:23.120Z,5.82
2022-10-06T13:32:19.101Z,7.03
2022-10-06T13:35:05.602Z,7.70
2022-10-06T13:37:53.526Z,7.07
2022-10-06T13:40:44.524Z,8.88
